Time;durP1;ratioP1;P1;durP2;ratioP2;P2;SDS_P1;SDS_P2;PMS_P1;PMS_P2;Temp;Humidity;BMP_temperature;BMP_pressure;BME280_temperature;BME280_humidity;BME280_pressure;Samples;Min_cycle;Max_cycle;Signal;HPM_P1;HPM_P2
2022/07/03 00:01:18;;;;;;;0.65;0.10;;;18.20;99.90;;;;;;5130967;27;20126;-81
2022/07/03 00:03:44;;;;;;;0.00;0.00;;;18.10;99.90;;;;;;5113668;28;20130;-81
2022/07/03 00:06:10;;;;;;;0.00;0.00;;;18.10;99.90;;;;;;5113543;28;20044;-81
2022/07/03 00:08:37;;;;;;;0.00;0.00;;;18.00;99.90;;;;;;5096354;28;20051;-81
2022/07/03 00:11:03;;;;;;;0.00;0.00;;;18.00;99.90;;;;;;5096603;28;20070;-81
2022/07/03 00:13:28;;;;;;;0.00;0.00;;;18.00;99.90;;;;;;5113660;28;20509;-81
2022/07/03 00:15:54;;;;;;;0.00;0.00;;;18.00;99.90;;;;;;5096582;28;20043;-81
2022/07/03 00:18:20;;;;;;;0.00;0.00;;;17.90;99.90;;;;;;5113590;28;20050;-81
2022/07/03 00:20:48;;;;;;;0.00;0.00;;;17.90;99.90;;;;;;5113508;28;20395;-81
2022/07/03 00:23:17;;;;;;;0.00;0.00;;;17.90;99.90;;;;;;5096690;28;20058;-81
2022/07/03 00:25:44;;;;;;;0.00;0.00;;;17.80;99.90;;;;;;5113663;28;20093;-81
2022/07/03 00:28:10;;;;;;;0.00;0.00;;;17.80;99.90;;;;;;5113402;28;20061;-81
2022/07/03 00:30:36;;;;;;;0.00;0.00;;;17.80;99.90;;;;;;5130859;27;20051;-81
2022/07/03 00:33:03;;;;;;;0.00;0.00;;;17.80;99.90;;;;;;5114170;28;20437;-81
2022/07/03 00:35:32;;;;;;;0.00;0.00;;;17.80;99.90;;;;;;5131251;28;20047;-81
2022/07/03 00:37:58;;;;;;;0.00;0.00;;;17.80;99.90;;;;;;5114019;28;20043;-81
2022/07/03 00:40:24;;;;;;;0.00;0.00;;;17.70;99.90;;;;;;5113725;28;20134;-81
2022/07/03 00:42:53;;;;;;;0.00;0.00;;;17.70;99.90;;;;;;5113634;28;20079;-81
2022/07/03 00:45:25;;;;;;;0.00;0.00;;;17.70;99.90;;;;;;5113899;28;20044;-81
2022/07/03 00:47:51;;;;;;;0.00;0.00;;;17.70;99.90;;;;;;5130800;28;20070;-81
2022/07/03 00:50:18;;;;;;;0.47;0.10;;;17.70;99.90;;;;;;5097110;28;20475;-81
2022/07/03 00:52:47;;;;;;;0.00;0.00;;;17.60;99.90;;;;;;5131386;28;20484;-81
2022/07/03 00:55:18;;;;;;;0.00;0.00;;;17.60;99.90;;;;;;5096670;28;20070;-81
2022/07/03 00:57:46;;;;;;;0.00;0.00;;;17.60;99.90;;;;;;5114080;28;20051;-83
2022/07/03 01:00:13;;;;;;;0.00;0.00;;;17.50;99.90;;;;;;5137528;27;20055;-81
2022/07/03 01:02:49;;;;;;;0.00;0.00;;;17.50;99.90;;;;;;5123803;28;20050;-81
2022/07/03 01:05:32;;;;;;;0.00;0.00;;;17.40;99.90;;;;;;5126047;27;20058;-82
2022/07/03 01:08:22;;;;;;;0.00;0.00;;;17.40;99.90;;;;;;5127749;27;20051;-81
2022/07/03 01:11:28;;;;;;;0.00;0.00;;;17.40;99.90;;;;;;5125973;27;20047;-82
2022/07/03 01:14:15;;;;;;;0.00;0.00;;;17.30;99.90;;;;;;5121696;27;20537;-81
2022/07/03 01:16:46;;;;;;;0.00;0.00;;;17.30;99.90;;;;;;5103031;27;20047;-81
2022/07/03 01:19:34;;;;;;;0.00;0.00;;;17.30;99.90;;;;;;5103756;27;20130;-81
2022/07/03 01:22:22;;;;;;;0.00;0.00;;;17.20;99.90;;;;;;5120392;27;20133;-81
2022/07/03 01:24:56;;;;;;;0.00;0.00;;;17.20;99.90;;;;;;5119991;27;20079;-81
2022/07/03 01:27:42;;;;;;;;;;;17.10;99.90;;;;;;5103594;27;20474;-81
2022/07/03 01:30:12;;;;;;;;;;;17.10;99.90;;;;;;5102137;27;19923;-81
2022/07/03 01:32:46;;;;;;;0.00;0.00;;;17.00;99.90;;;;;;5102675;27;19919;-81
2022/07/03 01:35:20;;;;;;;0.00;0.00;;;17.00;99.90;;;;;;5120499;27;20054;-81
2022/07/03 01:37:47;;;;;;;0.00;0.00;;;17.00;99.90;;;;;;5103163;27;20055;-81
2022/07/03 01:40:16;;;;;;;0.00;0.00;;;17.00;99.90;;;;;;5137340;27;20035;-81
2022/07/03 01:42:44;;;;;;;0.00;0.00;;;16.90;99.90;;;;;;5120110;27;20042;-81
2022/07/03 01:45:13;;;;;;;0.00;0.00;;;16.80;99.90;;;;;;5120160;27;20043;-81
2022/07/03 01:47:41;;;;;;;0.00;0.00;;;16.80;99.90;;;;;;5102179;27;20391;-81
2022/07/03 01:50:12;;;;;;;0.00;0.00;;;16.70;99.90;;;;;;5137514;27;20051;-81
2022/07/03 01:52:42;;;;;;;0.00;0.00;;;16.70;99.90;;;;;;5119814;27;20191;-81
2022/07/03 01:55:12;;;;;;;0.00;0.00;;;16.70;99.90;;;;;;5102440;27;20039;-81
2022/07/03 01:57:49;;;;;;;0.00;0.00;;;16.50;99.90;;;;;;5102546;27;20163;-81
2022/07/03 02:00:21;;;;;;;0.00;0.00;;;16.60;99.90;;;;;;5103011;27;20136;-81
2022/07/03 02:02:59;;;;;;;0.00;0.00;;;16.50;99.90;;;;;;5119545;27;20192;-81
2022/07/03 02:05:34;;;;;;;1.08;0.30;;;16.50;99.90;;;;;;5102733;27;20162;-81
2022/07/03 02:08:06;;;;;;;0.00;0.00;;;16.50;99.90;;;;;;5101564;27;20137;-81
2022/07/03 02:10:40;;;;;;;0.00;0.00;;;16.40;99.90;;;;;;5102575;27;20479;-81
2022/07/03 02:13:27;;;;;;;0.00;0.00;;;16.40;99.90;;;;;;5119638;27;20039;-81
2022/07/03 02:15:57;;;;;;;0.00;0.00;;;16.30;99.90;;;;;;5119278;27;20551;-81
2022/07/03 02:18:34;;;;;;;0.00;0.00;;;16.30;99.90;;;;;;5102084;27;20051;-81
2022/07/03 02:21:19;;;;;;;0.00;0.00;;;16.30;99.90;;;;;;5119492;27;20486;-81
2022/07/03 02:24:15;;;;;;;0.00;0.00;;;16.20;99.90;;;;;;5119342;27;20086;-81
2022/07/03 02:26:42;;;;;;;0.00;0.00;;;16.20;99.90;;;;;;5118861;27;20043;-81
2022/07/03 02:29:17;;;;;;;0.00;0.00;;;16.10;99.90;;;;;;5118365;27;20103;-81
2022/07/03 02:31:46;;;;;;;0.00;0.00;;;16.10;99.90;;;;;;5117955;27;20058;-81
2022/07/03 02:34:17;;;;;;;0.10;0.10;;;16.10;99.90;;;;;;5118792;27;20043;-81
2022/07/03 02:36:50;;;;;;;0.00;0.00;;;16.00;99.90;;;;;;5119034;27;20043;-81
2022/07/03 02:39:43;;;;;;;0.00;0.00;;;16.00;99.90;;;;;;5135984;27;20047;-81
2022/07/03 02:42:22;;;;;;;0.00;0.00;;;16.00;99.90;;;;;;5102074;27;20043;-81
2022/07/03 02:44:51;;;;;;;0.00;0.00;;;16.00;99.90;;;;;;5101008;27;20142;-81
2022/07/03 02:47:59;;;;;;;0.00;0.00;;;16.00;99.90;;;;;;5101223;27;20051;-81
2022/07/03 02:50:27;;;;;;;0.00;0.00;;;15.90;99.90;;;;;;5135578;27;20548;-81
2022/07/03 02:53:26;;;;;;;0.00;0.00;;;15.90;99.90;;;;;;5118051;27;20058;-81
2022/07/03 02:56:03;;;;;;;0.00;0.00;;;15.80;99.90;;;;;;5017015;28;20065;-81
2022/07/03 02:59:05;;;;;;;0.00;0.00;;;15.70;99.90;;;;;;5000223;28;20410;-81
2022/07/03 03:01:34;;;;;;;0.00;0.00;;;15.70;99.90;;;;;;5017065;28;20080;-81
2022/07/03 03:04:20;;;;;;;0.00;0.00;;;15.70;99.90;;;;;;5000476;28;20053;-81
2022/07/03 03:07:00;;;;;;;0.00;0.00;;;15.60;99.90;;;;;;4999575;28;20054;-81
2022/07/03 03:09:41;;;;;;;0.00;0.00;;;15.60;99.90;;;;;;5017101;28;20558;-81
2022/07/03 03:12:09;;;;;;;0.00;0.00;;;15.50;99.90;;;;;;5016759;28;20132;-80
2022/07/03 03:14:44;;;;;;;0.00;0.00;;;15.60;99.90;;;;;;4999791;28;20241;-81
2022/07/03 03:17:17;;;;;;;0.00;0.00;;;15.60;99.90;;;;;;5017132;28;20057;-81
2022/07/03 03:19:46;;;;;;;0.10;0.10;;;15.50;99.90;;;;;;5000364;28;20076;-81
2022/07/03 03:22:42;;;;;;;0.00;0.00;;;15.50;99.90;;;;;;5016475;28;20416;-81
2022/07/03 03:25:07;;;;;;;0.00;0.00;;;15.50;99.90;;;;;;5015731;28;20445;-80
2022/07/03 03:27:34;;;;;;;0.00;0.00;;;15.40;99.90;;;;;;5016090;28;20046;-80
2022/07/03 03:29:59;;;;;;;0.00;0.00;;;15.40;99.90;;;;;;4999689;28;20060;-80
2022/07/03 03:32:27;;;;;;;0.00;0.00;;;15.40;99.90;;;;;;5070420;27;20141;-80
2022/07/03 03:34:52;;;;;;;0.13;0.13;;;15.40;99.90;;;;;;5134879;27;20076;-80
2022/07/03 03:37:18;;;;;;;0.00;0.00;;;15.30;99.90;;;;;;5100522;27;20494;-80
2022/07/03 03:39:45;;;;;;;0.10;0.10;;;15.30;99.90;;;;;;5117510;27;20482;-80
2022/07/03 03:42:11;;;;;;;0.00;0.00;;;15.20;99.90;;;;;;5100730;27;20050;-80
2022/07/03 03:44:38;;;;;;;0.00;0.00;;;15.20;99.90;;;;;;5100563;27;20412;-80
2022/07/03 03:47:04;;;;;;;0.00;0.00;;;15.20;99.90;;;;;;5116929;27;20182;-80
2022/07/03 03:49:29;;;;;;;0.00;0.00;;;15.20;99.90;;;;;;5100571;27;20566;-80
2022/07/03 03:51:56;;;;;;;0.00;0.00;;;15.20;99.90;;;;;;5134561;27;20039;-80
2022/07/03 03:54:22;;;;;;;0.00;0.00;;;15.20;99.90;;;;;;5117328;27;20046;-80
2022/07/03 03:56:48;;;;;;;0.00;0.00;;;15.30;99.90;;;;;;5117461;27;20050;-80
2022/07/03 03:59:13;;;;;;;0.00;0.00;;;15.30;99.90;;;;;;5100418;27;20062;-80
2022/07/03 04:01:39;;;;;;;0.00;0.00;;;15.30;99.90;;;;;;5116752;27;20130;-80
2022/07/03 04:04:04;;;;;;;0.00;0.00;;;15.30;99.90;;;;;;5117029;27;20054;-80
2022/07/03 04:06:30;;;;;;;0.00;0.00;;;15.40;99.90;;;;;;5116014;28;20160;-80
2022/07/03 04:08:56;;;;;;;0.00;0.00;;;15.50;99.90;;;;;;5133257;28;20039;-80
2022/07/03 04:11:21;;;;;;;0.00;0.00;;;15.40;99.90;;;;;;5098853;28;20047;-80
2022/07/03 04:13:47;;;;;;;0.00;0.00;;;15.40;99.90;;;;;;5116437;28;20043;-80
2022/07/03 04:16:13;;;;;;;0.00;0.00;;;15.50;99.90;;;;;;5116297;28;20505;-79
2022/07/03 04:18:39;;;;;;;0.08;0.00;;;15.60;99.90;;;;;;5116471;28;20035;-80
2022/07/03 04:21:04;;;;;;;0.00;0.00;;;15.60;99.90;;;;;;5116386;28;20100;-80
2022/07/03 04:23:30;;;;;;;0.00;0.00;;;15.60;99.90;;;;;;5099066;28;20051;-80
2022/07/03 04:26:02;;;;;;;0.00;0.00;;;15.70;99.90;;;;;;5115784;28;20486;-80
2022/07/03 04:28:27;;;;;;;0.00;0.00;;;15.80;99.90;;;;;;5116146;28;20150;-80
2022/07/03 04:30:53;;;;;;;0.00;0.00;;;15.80;99.90;;;;;;5099110;28;20093;-80
2022/07/03 04:33:19;;;;;;;0.00;0.00;;;15.90;99.90;;;;;;5115764;28;20497;-80
2022/07/03 04:35:44;;;;;;;0.63;0.00;;;15.90;99.90;;;;;;5097858;28;20059;-80
2022/07/03 04:38:11;;;;;;;0.00;0.00;;;16.00;99.90;;;;;;5098978;28;20051;-80
2022/07/03 04:40:36;;;;;;;0.00;0.00;;;16.00;99.90;;;;;;5116128;28;20043;-80
2022/07/03 04:43:02;;;;;;;0.00;0.00;;;16.00;99.90;;;;;;5115901;28;20239;-80
2022/07/03 04:45:28;;;;;;;0.00;0.00;;;16.00;99.90;;;;;;5115943;28;20039;-80
2022/07/03 04:47:53;;;;;;;0.00;0.00;;;16.10;99.90;;;;;;5099008;28;20039;-80
2022/07/03 04:50:19;;;;;;;0.00;0.00;;;16.10;99.90;;;;;;5098761;28;20426;-80
2022/07/03 04:52:45;;;;;;;0.00;0.00;;;16.10;99.90;;;;;;5098597;28;20475;-80
2022/07/03 04:55:11;;;;;;;0.00;0.00;;;16.10;99.90;;;;;;5133556;28;20390;-80
2022/07/03 04:57:37;;;;;;;0.10;0.00;;;16.10;99.90;;;;;;5098898;28;20038;-80
2022/07/03 05:00:04;;;;;;;0.00;0.00;;;16.10;99.90;;;;;;5132866;28;20371;-80
2022/07/03 05:02:29;;;;;;;0.00;0.00;;;16.10;99.90;;;;;;5115518;28;20050;-81
2022/07/03 05:04:55;;;;;;;0.00;0.00;;;16.10;99.90;;;;;;5115895;28;20039;-80
2022/07/03 05:07:21;;;;;;;0.00;0.00;;;16.10;99.90;;;;;;5055060;28;1244543;-81
2022/07/03 05:09:46;;;;;;;0.00;0.00;;;16.00;99.90;;;;;;5116236;28;20490;-80
2022/07/03 05:12:12;;;;;;;0.10;0.10;;;15.90;99.90;;;;;;5099476;28;20055;-80
2022/07/03 05:14:38;;;;;;;2.17;0.22;;;16.00;99.90;;;;;;5099095;28;20375;-80
2022/07/03 05:17:03;;;;;;;0.00;0.00;;;15.90;99.90;;;;;;5099126;28;20142;-81
2022/07/03 05:19:29;;;;;;;0.00;0.00;;;15.90;99.90;;;;;;5133654;28;20138;-81
2022/07/03 05:21:58;;;;;;;0.00;0.00;;;15.90;99.90;;;;;;5098902;28;20063;-81
2022/07/03 05:24:23;;;;;;;0.00;0.00;;;15.90;99.90;;;;;;5116309;28;20049;-80
2022/07/03 05:26:50;;;;;;;0.00;0.00;;;15.90;99.90;;;;;;5115983;28;20409;-80
2022/07/03 05:29:16;;;;;;;0.15;0.05;;;15.90;99.90;;;;;;5098944;28;20059;-80
2022/07/03 05:31:41;;;;;;;0.00;0.00;;;15.90;99.90;;;;;;5116386;28;20489;-80
2022/07/03 05:34:08;;;;;;;0.00;0.00;;;16.00;99.90;;;;;;5116253;28;20192;-81
2022/07/03 05:36:33;;;;;;;0.00;0.00;;;16.00;99.90;;;;;;5115998;28;20058;-81
2022/07/03 05:41:43;;;;;;;0.08;0.00;;;16.10;99.90;;;;;;5116407;28;20130;-81
2022/07/03 05:44:09;;;;;;;0.00;0.00;;;16.10;99.90;;;;;;5099274;28;20142;-81
2022/07/03 05:46:34;;;;;;;0.00;0.00;;;16.30;99.90;;;;;;5116395;27;20035;-81
2022/07/03 05:49:00;;;;;;;0.00;0.00;;;16.70;99.90;;;;;;5102994;27;20941;-81
2022/07/03 05:51:25;;;;;;;0.00;0.00;;;17.40;99.90;;;;;;5119970;27;20047;-81
2022/07/03 05:53:51;;;;;;;0.00;0.00;;;18.10;99.90;;;;;;5119526;27;20042;-81
2022/07/03 05:56:17;;;;;;;0.00;0.00;;;18.30;99.90;;;;;;5102926;27;20043;-81
2022/07/03 05:58:42;;;;;;;0.00;0.00;;;18.20;99.90;;;;;;5120089;27;20039;-81
2022/07/03 06:01:08;;;;;;;0.00;0.00;;;18.00;99.90;;;;;;5119678;27;20039;-81
2022/07/03 06:03:34;;;;;;;0.00;0.00;;;17.80;99.90;;;;;;5102206;27;20053;-81
2022/07/03 06:06:00;;;;;;;0.10;0.05;;;17.70;99.90;;;;;;5119230;27;20394;-81
2022/07/03 06:08:25;;;;;;;0.10;0.10;;;17.70;99.90;;;;;;5119602;27;20570;-81
2022/07/03 06:10:51;;;;;;;0.03;0.00;;;17.70;99.90;;;;;;5119349;27;20040;-81
2022/07/03 06:13:17;;;;;;;0.00;0.00;;;17.60;99.90;;;;;;5102107;27;20055;-81
2022/07/03 06:15:42;;;;;;;0.00;0.00;;;17.60;99.90;;;;;;5102568;27;20043;-82
2022/07/03 06:18:08;;;;;;;0.05;0.00;;;17.70;99.90;;;;;;5101924;27;20422;-81
2022/07/03 06:20:34;;;;;;;0.00;0.00;;;17.80;99.90;;;;;;5119697;27;20074;-82
2022/07/03 06:22:59;;;;;;;0.20;0.03;;;17.90;99.90;;;;;;5101720;27;20070;-81
2022/07/03 06:25:25;;;;;;;0.00;0.00;;;18.00;99.90;;;;;;5102079;27;20089;-81
2022/07/03 06:27:50;;;;;;;0.00;0.00;;;18.10;99.90;;;;;;5135970;27;20496;-81
2022/07/03 06:30:16;;;;;;;0.00;0.00;;;18.20;99.90;;;;;;5119182;27;20125;-81
2022/07/03 06:32:42;;;;;;;0.00;0.00;;;18.20;99.90;;;;;;5118605;27;20035;-81
2022/07/03 06:35:08;;;;;;;0.00;0.00;;;18.20;99.90;;;;;;5101919;27;20039;-82
2022/07/03 06:37:33;;;;;;;0.00;0.00;;;18.30;99.90;;;;;;5135774;27;20047;-81
2022/07/03 06:39:59;;;;;;;0.00;0.00;;;18.30;99.90;;;;;;5135935;27;20406;-81
2022/07/03 06:42:24;;;;;;;0.00;0.00;;;18.30;99.90;;;;;;5135807;27;20088;-81
2022/07/03 06:44:50;;;;;;;0.00;0.00;;;18.40;99.90;;;;;;5101021;27;20142;-81
2022/07/03 06:47:16;;;;;;;0.00;0.00;;;18.50;99.90;;;;;;5135655;27;20050;-81
2022/07/03 06:49:43;;;;;;;0.00;0.00;;;18.60;99.90;;;;;;5101752;27;20089;-81
2022/07/03 06:52:09;;;;;;;0.13;0.10;;;18.70;99.90;;;;;;5119105;27;20043;-81
2022/07/03 06:54:37;;;;;;;0.00;0.00;;;18.80;99.90;;;;;;5118521;27;20079;-81
2022/07/03 06:57:04;;;;;;;0.00;0.00;;;18.90;99.90;;;;;;5101624;27;20051;-81
2022/07/03 06:59:29;;;;;;;0.00;0.00;;;19.00;99.90;;;;;;5117794;27;20046;-81
2022/07/03 07:01:55;;;;;;;0.00;0.00;;;19.10;99.90;;;;;;5118358;27;20464;-81
2022/07/03 07:04:21;;;;;;;3.53;0.47;;;19.20;99.90;;;;;;5118036;27;20084;-81
2022/07/03 07:06:46;;;;;;;0.00;0.00;;;19.30;99.90;;;;;;5118102;27;20099;-81
2022/07/03 07:09:12;;;;;;;0.00;0.00;;;19.40;99.90;;;;;;5135446;27;20087;-81
2022/07/03 07:11:38;;;;;;;0.00;0.00;;;19.50;99.90;;;;;;5118293;27;20047;-81
2022/07/03 07:14:03;;;;;;;0.00;0.00;;;19.60;99.90;;;;;;5118122;27;20046;-81
2022/07/03 07:16:29;;;;;;;0.08;0.00;;;19.60;99.90;;;;;;5117969;27;20035;-81
2022/07/03 07:18:55;;;;;;;0.00;0.00;;;19.60;99.90;;;;;;5100457;27;20051;-81
2022/07/03 07:21:21;;;;;;;0.00;0.00;;;19.80;99.90;;;;;;5117739;27;20047;-81
2022/07/03 07:23:46;;;;;;;0.00;0.00;;;19.80;99.90;;;;;;5117802;27;20134;-81
2022/07/03 07:26:12;;;;;;;0.00;0.00;;;19.90;99.90;;;;;;5118013;27;20580;-81
2022/07/03 07:28:37;;;;;;;0.00;0.00;;;20.00;99.90;;;;;;5117579;27;20543;-81
2022/07/03 07:31:03;;;;;;;0.00;0.00;;;20.10;99.90;;;;;;5117887;27;20047;-80
2022/07/03 07:33:29;;;;;;;0.00;0.00;;;20.30;99.90;;;;;;5117472;27;20067;-81
2022/07/03 07:35:55;;;;;;;0.00;0.00;;;20.40;99.90;;;;;;5135047;27;20049;-81
2022/07/03 07:38:20;;;;;;;0.00;0.00;;;20.50;99.90;;;;;;5117638;27;20133;-81
2022/07/03 07:40:46;;;;;;;0.00;0.00;;;20.60;99.90;;;;;;5117766;27;20089;-81
2022/07/03 07:43:12;;;;;;;0.00;0.00;;;20.60;99.90;;;;;;5117323;27;20043;-81
2022/07/03 07:45:38;;;;;;;0.00;0.00;;;20.70;99.90;;;;;;5117450;27;20103;-81
2022/07/03 07:48:04;;;;;;;0.00;0.00;;;20.80;99.90;;;;;;5117340;27;20380;-81
2022/07/03 07:50:29;;;;;;;0.00;0.00;;;20.90;99.90;;;;;;5100187;27;20051;-81
2022/07/03 07:52:55;;;;;;;0.00;0.00;;;20.90;99.90;;;;;;5117624;27;20409;-81
2022/07/03 07:55:21;;;;;;;0.00;0.00;;;21.00;99.90;;;;;;5117505;27;20122;-81
2022/07/03 07:57:47;;;;;;;0.00;0.00;;;21.10;99.90;;;;;;5117465;27;20047;-81
2022/07/03 08:00:15;;;;;;;0.00;0.00;;;21.10;99.90;;;;;;5134713;27;20046;-81
2022/07/03 08:05:35;;;;;;;0.00;0.00;;;21.20;99.90;;;;;;5116822;27;20447;-81
2022/07/03 08:08:09;;;;;;;0.40;0.20;;;21.20;99.90;;;;;;5116722;27;20083;-81
2022/07/03 08:10:48;;;;;;;0.00;0.00;;;21.30;99.90;;;;;;5116187;27;20047;-81
2022/07/03 08:13:15;;;;;;;0.00;0.00;;;21.30;99.90;;;;;;5116968;27;20043;-81
2022/07/03 08:15:42;;;;;;;0.00;0.00;;;21.40;99.90;;;;;;5116928;27;20043;-81
2022/07/03 08:18:08;;;;;;;0.30;0.30;;;21.50;99.90;;;;;;5117266;27;20126;-81
2022/07/03 08:20:34;;;;;;;0.00;0.00;;;21.50;99.90;;;;;;5099783;28;20502;-81
2022/07/03 08:23:00;;;;;;;0.00;0.00;;;21.60;99.90;;;;;;5116927;27;20050;-81
2022/07/03 08:25:26;;;;;;;0.05;0.05;;;21.60;99.90;;;;;;5116643;28;20039;-81
2022/07/03 08:27:52;;;;;;;0.00;0.00;;;21.70;99.90;;;;;;5133902;27;20050;-81
2022/07/03 08:30:19;;;;;;;0.00;0.00;;;21.70;99.90;;;;;;5099870;28;20399;-80
2022/07/03 08:32:49;;;;;;;0.00;0.00;;;21.80;99.90;;;;;;5133839;27;20039;-81
2022/07/03 08:35:15;;;;;;;0.20;0.00;;;21.80;99.90;;;;;;5134146;27;20051;-81
2022/07/03 08:37:42;;;;;;;0.00;0.00;;;21.90;99.90;;;;;;5116201;28;20137;-81
2022/07/03 08:40:12;;;;;;;0.00;0.00;;;22.00;99.90;;;;;;5099657;28;20047;-81
2022/07/03 08:43:00;;;;;;;0.00;0.00;;;22.10;99.90;;;;;;5117274;28;20047;-81
2022/07/03 08:45:26;;;;;;;0.00;0.00;;;22.10;99.90;;;;;;5099384;28;20087;-81
2022/07/03 08:47:55;;;;;;;0.00;0.00;;;22.20;99.90;;;;;;5116236;28;20046;-81
2022/07/03 08:50:21;;;;;;;0.00;0.00;;;22.20;99.90;;;;;;5115789;28;20058;-81
2022/07/03 08:52:48;;;;;;;0.00;0.00;;;22.20;99.90;;;;;;5133872;28;20050;-81
2022/07/03 08:55:16;;;;;;;0.00;0.00;;;22.20;99.90;;;;;;5116705;28;20091;-81
2022/07/03 08:57:43;;;;;;;0.00;0.00;;;22.30;99.90;;;;;;5098902;28;20047;-81
2022/07/03 09:00:12;;;;;;;0.00;0.00;;;22.30;99.90;;;;;;5115589;28;20051;-81
2022/07/03 09:02:43;;;;;;;0.10;0.10;;;22.40;99.90;;;;;;5116566;28;20085;-81
2022/07/03 09:05:10;;;;;;;0.08;0.08;;;22.50;99.90;;;;;;5116875;28;20082;-81
2022/07/03 09:07:39;;;;;;;0.00;0.00;;;22.60;99.90;;;;;;5099136;28;20130;-81
2022/07/03 09:10:09;;;;;;;0.00;0.00;;;22.60;99.90;;;;;;5116618;28;20039;-81
2022/07/03 09:12:36;;;;;;;0.00;0.00;;;22.70;99.90;;;;;;5116764;28;20043;-81
2022/07/03 09:15:03;;;;;;;0.00;0.00;;;22.80;99.90;;;;;;5099606;28;20059;-81
2022/07/03 09:17:30;;;;;;;0.00;0.00;;;22.90;99.90;;;;;;5115546;28;20394;-81
2022/07/03 09:19:58;;;;;;;0.03;0.00;;;22.90;99.90;;;;;;5133807;28;20046;-80
2022/07/03 09:22:31;;;;;;;0.00;0.00;;;22.90;99.90;;;;;;5135165;27;20082;-81
2022/07/03 09:25:10;;;;;;;0.00;0.00;;;23.00;99.90;;;;;;5102683;27;20055;-81
2022/07/03 09:27:37;;;;;;;0.00;0.00;;;23.10;99.90;;;;;;5136958;27;20122;-81
2022/07/03 09:30:08;;;;;;;0.75;0.15;;;23.20;99.90;;;;;;5119748;27;20145;-81
2022/07/03 09:32:37;;;;;;;0.03;0.03;;;23.30;99.90;;;;;;5120352;27;20035;-81
2022/07/03 09:35:20;;;;;;;0.00;0.00;;;23.40;99.90;;;;;;5120261;27;20372;-81
2022/07/03 09:37:49;;;;;;;0.00;0.00;;;23.40;99.90;;;;;;5119757;27;20096;-81
2022/07/03 09:40:16;;;;;;;0.20;0.20;;;23.50;99.90;;;;;;5102475;27;20051;-81
2022/07/03 09:42:57;;;;;;;0.00;0.00;;;23.60;98.90;;;;;;5120025;27;20058;-81
2022/07/03 09:45:22;;;;;;;0.10;0.00;;;23.50;99.20;;;;;;5119762;27;20043;-81
2022/07/03 09:47:48;;;;;;;0.00;0.00;;;23.60;99.90;;;;;;5119561;27;20036;-81
2022/07/03 09:50:15;;;;;;;0.00;0.00;;;23.60;99.00;;;;;;5102894;27;20043;-80
2022/07/03 09:52:41;;;;;;;0.00;0.00;;;23.70;99.10;;;;;;5102004;27;20494;-81
2022/07/03 09:55:10;;;;;;;0.47;0.20;;;23.90;99.40;;;;;;5136776;27;20039;-81
2022/07/03 09:57:51;;;;;;;0.00;0.00;;;23.90;98.80;;;;;;5102345;27;20044;-81
2022/07/03 10:00:21;;;;;;;0.00;0.00;;;24.10;97.50;;;;;;5137184;27;20386;-81
2022/07/03 10:03:05;;;;;;;0.00;0.00;;;24.30;96.10;;;;;;5119538;27;20051;-81
2022/07/03 10:05:38;;;;;;;;;;;24.50;98.00;;;;;;5102569;27;20482;-80
2022/07/03 10:08:05;;;;;;;0.00;0.00;;;24.40;94.80;;;;;;5119242;27;19944;-81
2022/07/03 10:10:37;;;;;;;0.00;0.00;;;24.30;94.10;;;;;;5119598;27;20081;-81
2022/07/03 10:13:03;;;;;;;0.00;0.00;;;24.30;95.20;;;;;;5119735;27;20047;-81
2022/07/03 10:15:31;;;;;;;0.00;0.00;;;24.40;94.90;;;;;;5118834;27;20055;-81
2022/07/03 10:17:58;;;;;;;0.20;0.00;;;24.60;95.50;;;;;;5102038;27;20066;-81
2022/07/03 10:20:33;;;;;;;0.00;0.00;;;24.80;93.20;;;;;;5119187;27;20062;-81
2022/07/03 10:22:59;;;;;;;0.00;0.00;;;24.80;92.70;;;;;;5119387;27;20047;-81
2022/07/03 10:25:25;;;;;;;0.00;0.00;;;24.90;92.10;;;;;;5102174;27;20047;-81
2022/07/03 10:27:51;;;;;;;0.00;0.00;;;24.90;93.40;;;;;;5101726;27;20042;-81
2022/07/03 10:30:20;;;;;;;0.00;0.00;;;25.00;91.80;;;;;;5119613;27;20043;-81
2022/07/03 10:32:48;;;;;;;0.00;0.00;;;24.90;93.30;;;;;;5136686;27;20035;-81
2022/07/03 10:35:19;;;;;;;0.03;0.03;;;24.80;91.70;;;;;;5102156;27;20479;-81
2022/07/03 10:38:12;;;;;;;0.00;0.00;;;24.80;93.20;;;;;;5119186;27;20047;-81
2022/07/03 10:46:33;;;;;;;0.00;0.00;;;24.90;89.30;;;;;;5118801;27;20054;-81
2022/07/03 10:49:05;;;;;;;0.00;0.00;;;25.00;92.00;;;;;;5101526;27;20035;-81
2022/07/03 10:51:55;;;;;;;0.00;0.00;;;25.10;92.00;;;;;;5118891;27;20039;-81
2022/07/03 10:54:24;;;;;;;0.00;0.00;;;25.40;91.30;;;;;;5017203;28;20497;-82
2022/07/03 10:57:17;;;;;;;0.00;0.00;;;25.40;86.40;;;;;;5016915;28;20050;-82
2022/07/03 10:59:46;;;;;;;0.00;0.00;;;25.50;91.80;;;;;;5000424;28;20049;-81
2022/07/03 11:02:32;;;;;;;0.00;0.00;;;25.30;90.30;;;;;;5016943;28;20053;-81
2022/07/03 11:05:01;;;;;;;0.00;0.00;;;25.20;90.20;;;;;;5016573;28;20501;-81
2022/07/03 11:07:32;;;;;;;0.00;0.00;;;25.10;87.50;;;;;;5016320;28;20472;-82
2022/07/03 11:10:09;;;;;;;0.47;0.05;;;25.10;91.00;;;;;;5016682;28;20041;-81
2022/07/03 11:13:12;;;;;;;0.00;0.00;;;25.30;88.60;;;;;;5000084;28;20065;-81
2022/07/03 11:15:41;;;;;;;0.00;0.00;;;25.50;88.80;;;;;;5000481;28;20083;-81
2022/07/03 11:18:14;;;;;;;0.00;0.00;;;25.60;87.10;;;;;;5016621;28;20049;-81
2022/07/03 11:20:42;;;;;;;0.00;0.00;;;25.70;89.90;;;;;;5016531;28;20050;-81
2022/07/03 11:23:23;;;;;;;0.00;0.00;;;26.00;89.70;;;;;;5016475;28;20042;-81
2022/07/03 11:25:50;;;;;;;0.00;0.00;;;26.10;86.50;;;;;;5016613;28;20060;-81
2022/07/03 11:28:34;;;;;;;0.00;0.00;;;26.20;83.60;;;;;;4999868;28;20057;-81
2022/07/03 11:31:13;;;;;;;0.00;0.00;;;26.20;82.20;;;;;;5030270;28;20053;-81
2022/07/03 11:33:53;;;;;;;0.10;0.10;;;26.20;84.10;;;;;;5056026;28;20490;-81
2022/07/03 11:36:22;;;;;;;0.00;0.00;;;26.30;82.40;;;;;;5056266;28;20101;-81
2022/07/03 11:38:59;;;;;;;0.00;0.00;;;26.50;84.30;;;;;;5055881;28;20143;-81
2022/07/03 11:41:30;;;;;;;0.00;0.00;;;26.30;82.50;;;;;;5055711;28;20036;-81
2022/07/03 11:44:03;;;;;;;0.00;0.00;;;26.00;83.80;;;;;;5072753;28;20127;-81
2022/07/03 11:46:31;;;;;;;0.00;0.00;;;25.70;82.70;;;;;;5038528;28;20504;-81
2022/07/03 11:49:11;;;;;;;0.00;0.00;;;25.40;85.50;;;;;;5055474;28;20056;-81
2022/07/03 11:51:39;;;;;;;0.28;0.10;;;25.40;89.30;;;;;;5059283;28;20150;-81
2022/07/03 11:54:06;;;;;;;0.00;0.00;;;25.70;90.40;;;;;;5093106;28;20048;-81
2022/07/03 11:56:33;;;;;;;0.47;0.10;;;25.90;89.40;;;;;;5076610;28;20044;-81
2022/07/03 11:59:01;;;;;;;0.00;0.00;;;25.70;85.70;;;;;;5093657;28;20040;-81
2022/07/03 12:01:27;;;;;;;0.00;0.00;;;25.40;85.80;;;;;;5076356;28;20506;-81
2022/07/03 12:03:53;;;;;;;0.00;0.00;;;25.00;84.60;;;;;;5093509;28;20048;-81
2022/07/03 12:06:20;;;;;;;0.00;0.00;;;25.00;86.40;;;;;;5084386;28;20044;-81
2022/07/03 12:08:46;;;;;;;0.00;0.00;;;24.90;89.90;;;;;;5113611;28;20048;-81
2022/07/03 12:11:16;;;;;;;0.00;0.00;;;24.70;88.40;;;;;;5130826;27;20074;-81
2022/07/03 12:13:43;;;;;;;0.00;0.00;;;24.50;88.30;;;;;;5114029;28;20048;-81
2022/07/03 12:16:13;;;;;;;0.00;0.00;;;24.70;90.10;;;;;;5113737;28;20051;-82
2022/07/03 12:18:51;;;;;;;0.00;0.00;;;25.00;90.80;;;;;;5096845;28;20044;-81
2022/07/03 12:21:18;;;;;;;0.00;0.00;;;25.40;90.90;;;;;;5130941;27;20090;-82
2022/07/03 12:23:46;;;;;;;0.00;0.00;;;25.60;90.30;;;;;;5130645;27;20043;-82
2022/07/03 12:26:13;;;;;;;0.00;0.00;;;25.50;84.70;;;;;;5130710;27;20089;-82
2022/07/03 12:28:39;;;;;;;0.00;0.00;;;25.40;84.40;;;;;;5112969;28;20111;-82
2022/07/03 12:31:05;;;;;;;0.00;0.00;;;25.10;83.60;;;;;;5112973;28;20055;-82
2022/07/03 12:33:37;;;;;;;0.20;0.00;;;24.80;85.40;;;;;;5113451;28;20382;-82
2022/07/03 12:36:09;;;;;;;0.00;0.00;;;24.60;88.30;;;;;;5096921;28;20043;-81
2022/07/03 12:38:39;;;;;;;0.00;0.00;;;24.50;88.70;;;;;;5096093;28;20502;-81
2022/07/03 12:41:12;;;;;;;0.00;0.00;;;24.80;89.10;;;;;;5130557;28;20043;-82
2022/07/03 12:43:42;;;;;;;0.00;0.00;;;25.10;86.90;;;;;;5113812;28;20040;-81
2022/07/03 12:46:26;;;;;;;0.00;0.00;;;25.40;85.00;;;;;;5112819;28;20056;-82
2022/07/03 12:48:52;;;;;;;0.00;0.00;;;25.50;86.10;;;;;;5113697;28;20044;-82
2022/07/03 12:51:40;;;;;;;0.00;0.00;;;25.70;87.30;;;;;;5130602;28;20047;-82
2022/07/03 12:54:10;;;;;;;0.00;0.00;;;25.60;81.20;;;;;;5096337;28;20051;-82
2022/07/03 12:56:37;;;;;;;0.00;0.00;;;25.40;83.80;;;;;;5113690;28;20040;-82
2022/07/03 12:59:18;;;;;;;0.00;0.00;;;25.20;84.50;;;;;;5117281;28;20035;-82
2022/07/03 13:01:45;;;;;;;0.00;0.00;;;25.20;81.80;;;;;;5134767;27;20122;-82
2022/07/03 13:04:15;;;;;;;0.00;0.00;;;25.10;81.10;;;;;;5100186;28;20510;-82
2022/07/03 13:06:42;;;;;;;0.00;0.00;;;24.90;84.20;;;;;;5134100;27;20399;-82
2022/07/03 13:09:08;;;;;;;0.00;0.00;;;24.80;83.90;;;;;;5117307;28;20451;-82
2022/07/03 13:11:37;;;;;;;0.00;0.00;;;24.70;88.70;;;;;;5100189;28;20082;-82
2022/07/03 13:14:18;;;;;;;0.00;0.00;;;24.70;90.50;;;;;;5100025;28;20138;-82